createdAt,value
2023-06-04T00:01:34.407Z,99.90
2023-06-04T00:06:37.101Z,99.90
2023-06-04T00:11:39.082Z,99.90
2023-06-04T00:16:41.979Z,99.90
2023-06-04T00:21:43.936Z,99.90
2023-06-04T00:26:46.117Z,99.90
2023-06-04T00:31:47.997Z,99.90
2023-06-04T00:36:49.889Z,99.90
2023-06-04T00:41:51.730Z,99.90
2023-06-04T00:46:54.861Z,99.90
2023-06-04T00:51:56.950Z,99.90
2023-06-04T00:56:58.828Z,99.90
2023-06-04T01:02:12.245Z,99.90
2023-06-04T01:07:16.639Z,99.90
2023-06-04T01:12:18.447Z,99.90
2023-06-04T01:17:21.883Z,99.90
2023-06-04T01:22:29.936Z,99.90
2023-06-04T01:27:33.334Z,99.90
2023-06-04T01:32:35.600Z,99.90
2023-06-04T01:37:37.625Z,99.90
2023-06-04T01:42:39.550Z,99.90
2023-06-04T01:47:41.455Z,99.90
2023-06-04T01:52:43.295Z,99.90
2023-06-04T01:57:46.733Z,99.90
2023-06-04T02:02:51.498Z,99.90
2023-06-04T02:07:53.695Z,99.90
2023-06-04T02:13:01.546Z,99.90
2023-06-04T02:18:17.424Z,99.90
2023-06-04T02:23:20.830Z,99.90
2023-06-04T02:28:23.050Z,99.90
2023-06-04T02:33:24.868Z,99.90
2023-06-04T02:38:26.663Z,99.90
2023-06-04T02:43:28.458Z,99.90
2023-06-04T02:48:30.292Z,99.90
2023-06-04T02:53:32.298Z,99.90
2023-06-04T02:58:41.023Z,99.90
2023-06-04T03:03:46.158Z,99.90
2023-06-04T03:08:51.997Z,99.90
2023-06-04T03:13:54.184Z,99.90
2023-06-04T03:18:56.520Z,99.90
2023-06-04T03:23:58.634Z,99.90
2023-06-04T03:29:00.448Z,99.90
2023-06-04T03:34:02.278Z,99.90
2023-06-04T03:39:04.117Z,99.90
2023-06-04T03:44:06.075Z,99.90
2023-06-04T03:49:08.121Z,99.90
2023-06-04T03:54:10.111Z,99.90
2023-06-04T03:59:12.051Z,99.90
2023-06-04T04:04:13.890Z,99.90
2023-06-04T04:09:15.736Z,99.90
2023-06-04T04:14:17.592Z,99.90
2023-06-04T04:19:19.455Z,99.90
2023-06-04T04:24:25.383Z,99.90
2023-06-04T04:29:28.713Z,99.90
2023-06-04T04:34:33.575Z,99.90
2023-06-04T04:39:37.257Z,99.90
2023-06-04T04:44:39.226Z,99.90
2023-06-04T04:49:41.064Z,99.90
2023-06-04T04:54:43.126Z,99.90
2023-06-04T04:59:44.974Z,99.90
2023-06-04T05:04:46.829Z,99.90
2023-06-04T05:09:48.621Z,99.90
2023-06-04T05:14:51.150Z,99.90
2023-06-04T05:19:53.821Z,99.90
2023-06-04T05:24:56.828Z,99.90
2023-06-04T05:29:59.417Z,99.90
2023-06-04T05:35:01.574Z,99.90
2023-06-04T05:40:04.049Z,99.90
2023-06-04T05:45:09.219Z,99.90
2023-06-04T05:50:11.154Z,99.90
2023-06-04T05:55:12.947Z,99.90
2023-06-04T06:00:15.175Z,99.90
2023-06-04T06:05:18.977Z,99.90
2023-06-04T06:10:20.773Z,99.90
2023-06-04T06:15:22.822Z,99.90
2023-06-04T06:20:25.278Z,99.90
2023-06-04T06:25:27.137Z,99.90
2023-06-04T06:30:29.180Z,99.90
2023-06-04T06:35:31.293Z,99.90
2023-06-04T06:40:33.111Z,99.90
2023-06-04T06:45:37.122Z,99.90
2023-06-04T06:50:39.876Z,99.90
2023-06-04T06:55:41.685Z,99.90
2023-06-04T07:00:43.511Z,99.90
2023-06-04T07:05:45.430Z,99.90
2023-06-04T07:10:47.553Z,99.90
2023-06-04T07:15:49.430Z,99.90
2023-06-04T07:20:55.006Z,99.90
2023-06-04T07:25:58.229Z,99.90
2023-06-04T07:31:00.211Z,99.90
2023-06-04T07:36:02.141Z,99.90
2023-06-04T07:41:04.046Z,99.90
2023-06-04T07:46:06.704Z,99.90
2023-06-04T07:51:08.876Z,99.90
2023-06-04T07:56:10.978Z,99.90
2023-06-04T08:01:12.815Z,99.90
2023-06-04T08:06:15.879Z,99.90
2023-06-04T08:11:17.738Z,99.90
2023-06-04T08:16:19.609Z,99.90
2023-06-04T08:21:29.168Z,99.90
2023-06-04T08:26:31.836Z,99.90
2023-06-04T08:31:34.419Z,99.90
2023-06-04T08:36:36.315Z,99.90
2023-06-04T08:41:52.276Z,99.90
2023-06-04T08:46:59.359Z,99.90
2023-06-04T08:52:01.347Z,99.90
2023-06-04T08:57:04.486Z,99.90
2023-06-04T09:02:06.447Z,99.90
2023-06-04T09:07:11.618Z,99.90
2023-06-04T09:12:20.082Z,99.90
2023-06-04T09:17:25.637Z,99.90
2023-06-04T09:22:35.016Z,99.90
2023-06-04T09:27:41.252Z,99.60
2023-06-04T09:32:43.406Z,99.60
2023-06-04T09:37:58.054Z,99.80
2023-06-04T09:43:00.138Z,99.00
2023-06-04T09:48:04.548Z,98.50
2023-06-04T09:53:19.003Z,97.50
2023-06-04T09:58:22.698Z,98.10
2023-06-04T10:03:33.967Z,98.70
2023-06-04T10:08:36.791Z,98.00
2023-06-04T10:14:03.459Z,98.00
2023-06-04T10:19:07.952Z,98.10
2023-06-04T10:24:10.184Z,99.00
2023-06-04T10:29:13.689Z,98.40
2023-06-04T10:34:16.074Z,98.40
2023-06-04T10:39:30.476Z,97.40
2023-06-04T10:44:33.578Z,97.50
2023-06-04T10:49:35.585Z,97.30
2023-06-04T10:54:37.508Z,97.10
2023-06-04T10:59:39.409Z,96.60
2023-06-04T11:04:41.385Z,96.80
2023-06-04T11:09:50.719Z,96.70
2023-06-04T11:15:00.549Z,96.60
2023-06-04T11:20:02.400Z,96.00
2023-06-04T11:25:04.534Z,95.90
2023-06-04T11:30:09.496Z,95.50
2023-06-04T11:35:14.497Z,95.50
2023-06-04T11:40:18.351Z,95.80
2023-06-04T11:45:23.398Z,95.50
2023-06-04T11:50:30.094Z,95.80
2023-06-04T11:55:33.033Z,95.50
2023-06-04T12:00:35.245Z,94.60
2023-06-04T12:05:37.238Z,95.20
2023-06-04T12:10:40.621Z,94.10
2023-06-04T12:15:42.903Z,94.80
2023-06-04T12:20:45.738Z,93.90
2023-06-04T12:25:52.637Z,94.10
2023-06-04T12:30:54.737Z,94.30
2023-06-04T12:35:56.615Z,94.00
2023-06-04T12:40:58.537Z,93.60
2023-06-04T12:46:00.847Z,94.60
2023-06-04T12:51:04.028Z,93.80
2023-06-04T12:56:06.124Z,94.00
2023-06-04T13:01:08.266Z,93.60
2023-06-04T13:06:10.358Z,93.50
2023-06-04T13:11:12.508Z,93.40
2023-06-04T13:16:14.643Z,94.20
2023-06-04T13:21:16.555Z,93.30
2023-06-04T13:26:19.447Z,92.50
2023-06-04T13:31:21.496Z,92.00
2023-06-04T13:36:23.461Z,92.90
2023-06-04T13:41:25.251Z,91.90
2023-06-04T13:46:27.206Z,93.30
2023-06-04T13:51:31.288Z,92.60
2023-06-04T13:56:33.226Z,92.30
2023-06-04T14:01:35.226Z,92.70
2023-06-04T14:06:37.565Z,92.00
2023-06-04T14:11:40.401Z,92.00
2023-06-04T14:16:42.378Z,91.50
2023-06-04T14:21:44.915Z,91.20
2023-06-04T14:26:46.866Z,91.30
2023-06-04T14:31:48.963Z,91.10
2023-06-04T14:36:50.839Z,90.60
2023-06-04T14:41:53.377Z,90.10
2023-06-04T14:46:55.315Z,90.20
2023-06-04T14:51:57.260Z,90.00
2023-06-04T14:56:59.169Z,90.00
2023-06-04T15:02:02.094Z,88.10
2023-06-04T15:07:04.697Z,89.30
2023-06-04T15:12:06.678Z,89.40
2023-06-04T15:17:08.827Z,88.10
2023-06-04T15:22:10.667Z,87.50
2023-06-04T15:27:12.495Z,89.60
2023-06-04T15:32:14.342Z,87.20
2023-06-04T15:37:16.339Z,88.40
2023-06-04T15:42:18.135Z,87.40
2023-06-04T15:47:19.966Z,88.40
2023-06-04T15:52:21.892Z,88.30
2023-06-04T15:57:23.957Z,87.70
2023-06-04T16:02:25.842Z,87.40
2023-06-04T16:07:27.960Z,87.10
2023-06-04T16:12:29.809Z,86.90
2023-06-04T16:17:31.652Z,85.60
2023-06-04T16:22:33.495Z,87.80
2023-06-04T16:27:35.554Z,87.40
2023-06-04T16:32:37.393Z,87.00
2023-06-04T16:37:39.334Z,86.70
2023-06-04T16:42:41.232Z,86.10
2023-06-04T16:47:44.030Z,89.10
2023-06-04T16:52:46.017Z,87.60
2023-06-04T16:57:47.828Z,87.50
2023-06-04T17:02:49.715Z,87.20
2023-06-04T17:07:51.704Z,87.70
2023-06-04T17:12:53.490Z,87.80
2023-06-04T17:18:01.576Z,86.50
2023-06-04T17:23:03.769Z,86.60
2023-06-04T17:28:05.626Z,89.00
2023-06-04T17:33:07.526Z,87.50
2023-06-04T17:38:09.426Z,86.40
2023-06-04T17:43:11.270Z,86.60
2023-06-04T17:48:13.164Z,86.80
2023-06-04T17:53:15.068Z,88.20
2023-06-04T17:58:17.448Z,88.40
2023-06-04T18:03:19.294Z,87.70
2023-06-04T18:08:22.332Z,88.90
2023-06-04T18:13:24.255Z,90.10
2023-06-04T18:18:26.563Z,90.20
2023-06-04T18:23:28.631Z,89.70
2023-06-04T18:28:30.720Z,90.20
2023-06-04T18:33:33.016Z,90.90
2023-06-04T18:38:34.864Z,90.90
2023-06-04T18:43:38.637Z,91.40
2023-06-04T18:48:41.507Z,90.90
2023-06-04T18:53:43.391Z,91.00
2023-06-04T18:58:50.450Z,91.60
2023-06-04T19:03:52.767Z,91.80
2023-06-04T19:08:54.787Z,92.50
2023-06-04T19:13:56.706Z,92.20
2023-06-04T19:18:58.900Z,92.90
2023-06-04T19:24:00.777Z,92.70
2023-06-04T19:29:02.862Z,93.40
2023-06-04T19:34:04.776Z,93.30
2023-06-04T19:39:07.586Z,93.60
2023-06-04T19:44:09.645Z,94.30
2023-06-04T19:49:11.696Z,94.60
2023-06-04T19:54:13.704Z,94.70
2023-06-04T19:59:16.522Z,94.80
2023-06-04T20:04:18.394Z,94.70
2023-06-04T20:09:20.509Z,94.40
2023-06-04T20:14:23.740Z,94.90
2023-06-04T20:19:25.878Z,95.20
2023-06-04T20:24:27.731Z,95.90
2023-06-04T20:29:29.569Z,96.20
2023-06-04T20:34:31.729Z,97.10
2023-06-04T20:39:35.088Z,97.70
2023-06-04T20:44:37.041Z,98.20
2023-06-04T20:49:38.952Z,98.40
2023-06-04T20:54:41.094Z,98.60
2023-06-04T20:59:42.930Z,99.00
2023-06-04T21:04:45.049Z,99.60
2023-06-04T21:09:47.032Z,99.90
2023-06-04T21:14:48.902Z,99.90
2023-06-04T21:19:50.843Z,99.90
2023-06-04T21:24:53.801Z,99.90
2023-06-04T21:29:55.765Z,99.90
2023-06-04T21:34:58.451Z,99.90
2023-06-04T21:40:00.374Z,99.90
2023-06-04T21:45:03.177Z,99.90
2023-06-04T21:50:06.024Z,99.90
2023-06-04T21:55:08.333Z,99.90
2023-06-04T22:00:12.577Z,99.90
2023-06-04T22:05:14.668Z,99.90
2023-06-04T22:10:16.761Z,99.90
2023-06-04T22:15:18.544Z,99.90
2023-06-04T22:20:20.375Z,99.90
2023-06-04T22:25:22.211Z,99.90
2023-06-04T22:30:24.013Z,99.90
2023-06-04T22:35:25.930Z,99.90
2023-06-04T22:40:27.733Z,99.90
2023-06-04T22:45:29.510Z,99.90
2023-06-04T22:50:31.354Z,99.90
2023-06-04T22:55:33.209Z,99.90
2023-06-04T23:00:35.032Z,99.90
2023-06-04T23:05:36.868Z,99.90
2023-06-04T23:10:38.678Z,99.90
2023-06-04T23:15:40.552Z,99.90
2023-06-04T23:20:42.348Z,99.90
2023-06-04T23:25:44.247Z,99.90
2023-06-04T23:30:46.049Z,99.90
2023-06-04T23:35:49.186Z,99.90
2023-06-04T23:40:50.988Z,99.90
2023-06-04T23:45:52.831Z,99.90
2023-06-04T23:50:54.629Z,99.90
2023-06-04T23:55:56.537Z,99.90
